C6534 KEFD-KEFD

Flight info

Callsign C6534
Flight time 3h 14m
Altitude 2000
Route VFR
Aircraft AS65/L-VGD/C

Departure

Time 2026-05-04 13:29
Airport Ellington Airport (KEFD)

Arrival

Time 2026-05-04 16:43
Airport Ellington Airport (KEFD)
Time Latitude Longitude Altitude Speed Heading
2026-05-04 13:21 29.60994 -95.16785 38 ft 0 kts 179°
2026-05-04 13:27 29.60991 -95.16785 45 ft 0 kts 159°
2026-05-04 13:27 29.60972 -95.16764 189 ft 16 kts 153°
2026-05-04 13:28 29.60737 -95.16599 429 ft 63 kts 149°
2026-05-04 13:28 29.60283 -95.16288 483 ft 77 kts 152°
2026-05-04 13:28 29.59833 -95.15989 488 ft 75 kts 150°
2026-05-04 13:28 29.59364 -95.15672 625 ft 90 kts 151°
2026-05-04 13:29 29.58812 -95.15286 710 ft 90 kts 152°
2026-05-04 13:29 29.58284 -95.14915 731 ft 88 kts 152°
2026-05-04 13:29 29.57762 -95.14557 740 ft 86 kts 160°
2026-05-04 13:29 29.57180 -95.14551 746 ft 87 kts 193°
2026-05-04 13:30 29.56629 -95.14756 750 ft 89 kts 199°
2026-05-04 13:30 29.56061 -95.15005 747 ft 87 kts 200°
2026-05-04 13:30 29.55481 -95.15248 754 ft 89 kts 200°
2026-05-04 13:30 29.54903 -95.15481 753 ft 88 kts 199°
2026-05-04 13:31 29.54311 -95.15708 757 ft 89 kts 199°
2026-05-04 13:31 29.53664 -95.15943 728 ft 112 kts 196°
2026-05-04 13:31 29.52823 -95.16216 756 ft 136 kts 196°
2026-05-04 13:31 29.51925 -95.16529 785 ft 132 kts 199°
2026-05-04 13:32 29.51039 -95.16859 782 ft 134 kts 199°
2026-05-04 13:32 29.50162 -95.17188 785 ft 134 kts 199°
2026-05-04 13:32 29.49279 -95.17518 778 ft 134 kts 197°
2026-05-04 13:32 29.48378 -95.17850 781 ft 134 kts 198°
2026-05-04 13:33 29.47495 -95.18170 778 ft 136 kts 198°
2026-05-04 13:33 29.46595 -95.18495 781 ft 136 kts 198°
2026-05-04 13:33 29.45693 -95.18821 782 ft 135 kts 198°
2026-05-04 13:33 29.44797 -95.19145 781 ft 135 kts 198°
2026-05-04 13:34 29.43929 -95.19458 784 ft 136 kts 198°
2026-05-04 13:34 29.43036 -95.19783 788 ft 131 kts 198°
2026-05-04 13:34 29.42168 -95.20102 780 ft 131 kts 198°
2026-05-04 13:34 29.41293 -95.20420 779 ft 132 kts 198°
2026-05-04 13:35 29.40410 -95.20739 785 ft 131 kts 198°
2026-05-04 13:35 29.38655 -95.21372 779 ft 133 kts 197°
2026-05-04 13:35 29.37768 -95.21688 773 ft 135 kts 197°
2026-05-04 13:36 29.36885 -95.22003 777 ft 131 kts 197°
2026-05-04 13:36 29.36003 -95.22319 774 ft 135 kts 198°
2026-05-04 13:36 29.35110 -95.22640 778 ft 133 kts 198°
2026-05-04 13:36 29.34234 -95.22959 766 ft 133 kts 197°
2026-05-04 13:37 29.33354 -95.23274 776 ft 132 kts 198°
2026-05-04 13:37 29.32465 -95.23595 777 ft 135 kts 199°
2026-05-04 13:37 29.31583 -95.23920 771 ft 133 kts 198°
2026-05-04 13:37 29.31000 -95.24132 768 ft 134 kts 197°
2026-05-04 13:38 29.29814 -95.24556 770 ft 132 kts 197°
2026-05-04 13:38 29.28933 -95.24871 771 ft 133 kts 197°
2026-05-04 13:38 29.28054 -95.25186 770 ft 132 kts 197°
2026-05-04 13:38 29.27163 -95.25504 771 ft 133 kts 197°
2026-05-04 13:39 29.26295 -95.25822 761 ft 130 kts 196°
2026-05-04 13:39 29.25426 -95.26134 765 ft 131 kts 196°
2026-05-04 13:39 29.24559 -95.26447 758 ft 131 kts 198°
2026-05-04 13:39 29.23686 -95.26759 765 ft 130 kts 197°
2026-05-04 13:40 29.22821 -95.27072 765 ft 131 kts 198°
2026-05-04 13:40 29.21948 -95.27389 770 ft 131 kts 198°
2026-05-04 13:40 29.21079 -95.27707 758 ft 133 kts 196°
2026-05-04 13:40 29.20220 -95.28016 765 ft 130 kts 197°
2026-05-04 13:41 29.19349 -95.28331 765 ft 131 kts 197°
2026-05-04 13:41 29.18488 -95.28644 760 ft 131 kts 197°
2026-05-04 13:41 29.17615 -95.28957 762 ft 131 kts 198°
2026-05-04 13:42 29.15848 -95.29590 759 ft 134 kts 199°
2026-05-04 13:42 29.14974 -95.29905 762 ft 131 kts 198°
2026-05-04 13:42 29.14086 -95.30219 767 ft 132 kts 197°
2026-05-04 13:42 29.13243 -95.30528 758 ft 126 kts 198°
2026-05-04 13:43 29.12390 -95.30833 764 ft 129 kts 197°
2026-05-04 13:43 29.11540 -95.31139 761 ft 128 kts 198°
2026-05-04 13:43 29.10707 -95.31437 758 ft 124 kts 196°
2026-05-04 13:43 29.09853 -95.31738 766 ft 130 kts 197°
2026-05-04 13:44 29.09031 -95.32044 760 ft 121 kts 197°
2026-05-04 13:44 29.08208 -95.32345 759 ft 127 kts 195°
2026-05-04 13:44 29.07358 -95.32652 765 ft 129 kts 195°
2026-05-04 13:44 29.06508 -95.32971 764 ft 127 kts 198°
2026-05-04 13:45 29.05668 -95.33293 759 ft 133 kts 198°
2026-05-04 13:45 29.04777 -95.33628 772 ft 131 kts 198°
2026-05-04 13:45 29.03914 -95.33954 764 ft 133 kts 198°
2026-05-04 13:45 29.03046 -95.34278 756 ft 132 kts 197°
2026-05-04 13:46 29.02160 -95.34597 764 ft 133 kts 198°
2026-05-04 13:46 29.01276 -95.34914 761 ft 134 kts 198°
2026-05-04 13:46 29.00396 -95.35231 761 ft 132 kts 199°
2026-05-04 13:46 28.99510 -95.35548 764 ft 133 kts 197°
2026-05-04 13:47 28.98625 -95.35864 760 ft 133 kts 198°
2026-05-04 13:47 28.97750 -95.36177 756 ft 133 kts 197°
2026-05-04 13:47 28.96854 -95.36491 769 ft 133 kts 198°
2026-05-04 13:47 28.96269 -95.36700 764 ft 133 kts 198°
2026-05-04 13:48 28.95392 -95.37019 761 ft 132 kts 198°
2026-05-04 13:48 28.94503 -95.37338 765 ft 134 kts 198°
2026-05-04 13:48 28.93629 -95.37656 761 ft 132 kts 197°
2026-05-04 13:48 28.92754 -95.37972 759 ft 132 kts 197°
2026-05-04 13:49 28.91885 -95.38284 759 ft 132 kts 196°
2026-05-04 13:49 28.91001 -95.38598 760 ft 133 kts 197°
2026-05-04 13:49 28.90126 -95.38909 763 ft 129 kts 197°
2026-05-04 13:49 28.89259 -95.39216 756 ft 133 kts 197°
2026-05-04 13:50 28.88382 -95.39525 765 ft 129 kts 197°
2026-05-04 13:50 28.87529 -95.39827 752 ft 130 kts 196°
2026-05-04 13:50 28.86653 -95.40130 763 ft 132 kts 197°
2026-05-04 13:50 28.85777 -95.40440 761 ft 132 kts 197°
2026-05-04 13:51 28.84903 -95.40750 758 ft 132 kts 197°
2026-05-04 13:51 28.84022 -95.41064 762 ft 132 kts 196°
2026-05-04 13:51 28.83162 -95.41376 757 ft 128 kts 197°
2026-05-04 13:51 28.82304 -95.41683 751 ft 132 kts 197°
2026-05-04 13:52 28.80575 -95.42301 754 ft 130 kts 199°
2026-05-04 13:52 28.79712 -95.42610 758 ft 129 kts 198°
2026-05-04 13:52 28.78853 -95.42915 758 ft 131 kts 197°
2026-05-04 13:53 28.77997 -95.43224 758 ft 126 kts 198°
2026-05-04 13:53 28.77151 -95.43526 755 ft 129 kts 197°
2026-05-04 13:53 28.76309 -95.43827 762 ft 125 kts 197°
2026-05-04 13:54 28.74628 -95.44421 757 ft 124 kts 198°
2026-05-04 13:54 28.73792 -95.44713 753 ft 129 kts 195°
2026-05-04 13:54 28.72124 -95.45293 755 ft 127 kts 198°
2026-05-04 13:55 28.71268 -95.45591 753 ft 130 kts 197°
2026-05-04 13:55 28.69547 -95.46198 753 ft 129 kts 197°
2026-05-04 13:55 28.68686 -95.46504 755 ft 131 kts 195°
2026-05-04 13:56 28.67838 -95.46808 763 ft 128 kts 195°
2026-05-04 13:56 28.66982 -95.47114 747 ft 132 kts 197°
2026-05-04 13:56 28.65253 -95.47726 749 ft 131 kts 197°
2026-05-04 13:57 28.64373 -95.48037 764 ft 130 kts 194°
2026-05-04 13:57 28.63510 -95.48349 755 ft 133 kts 197°
2026-05-04 13:58 28.60906 -95.49285 755 ft 129 kts 195°
2026-05-04 13:58 28.59201 -95.49894 758 ft 125 kts 197°
2026-05-04 13:58 28.58375 -95.50193 752 ft 125 kts 196°
2026-05-04 13:59 28.57561 -95.50487 753 ft 122 kts 195°
2026-05-04 13:59 28.56733 -95.50775 750 ft 129 kts 199°
2026-05-04 13:59 28.55090 -95.51361 746 ft 124 kts 197°
2026-05-04 14:00 28.54231 -95.51655 756 ft 130 kts 197°
2026-05-04 14:00 28.52534 -95.52252 755 ft 127 kts 198°
2026-05-04 14:00 28.51693 -95.52550 749 ft 127 kts 195°
2026-05-04 14:01 28.50836 -95.52849 760 ft 129 kts 198°
2026-05-04 14:01 28.49994 -95.53150 756 ft 125 kts 196°
2026-05-04 14:01 28.48381 -95.53733 725 ft 107 kts 198°
2026-05-04 14:02 28.47747 -95.53992 599 ft 88 kts 198°
2026-05-04 14:02 28.47196 -95.54214 539 ft 83 kts 192°
2026-05-04 14:02 28.46642 -95.54416 522 ft 85 kts 192°
2026-05-04 14:02 28.46085 -95.54612 516 ft 84 kts 195°
2026-05-04 14:03 28.45518 -95.54806 511 ft 83 kts 195°
2026-05-04 14:03 28.44979 -95.54991 508 ft 80 kts 191°
2026-05-04 14:03 28.44429 -95.55176 507 ft 86 kts 192°
2026-05-04 14:03 28.43844 -95.55375 505 ft 89 kts 196°
2026-05-04 14:04 28.42712 -95.55771 517 ft 86 kts 194°
2026-05-04 14:04 28.42116 -95.55940 506 ft 90 kts 182°
2026-05-04 14:04 28.41555 -95.55742 508 ft 83 kts 149°
2026-05-04 14:05 28.40707 -95.54943 508 ft 80 kts 176°
2026-05-04 14:05 28.40167 -95.55185 501 ft 93 kts 220°
2026-05-04 14:05 28.39915 -95.55866 505 ft 97 kts 268°
2026-05-04 14:06 28.40076 -95.56610 503 ft 102 kts 299°
2026-05-04 14:06 28.40659 -95.57057 507 ft 103 kts 350°
2026-05-04 14:06 28.41319 -95.56910 508 ft 97 kts 41°
2026-05-04 14:06 28.41653 -95.56309 506 ft 88 kts 92°
2026-05-04 14:07 28.41583 -95.55644 504 ft 84 kts 117°
2026-05-04 14:07 28.41371 -95.55015 506 ft 87 kts 121°
2026-05-04 14:07 28.41362 -95.54307 507 ft 97 kts 83°
2026-05-04 14:07 28.41782 -95.53700 509 ft 101 kts 38°
2026-05-04 14:08 28.42475 -95.53486 501 ft 110 kts
2026-05-04 14:08 28.43197 -95.53768 505 ft 111 kts 323°
2026-05-04 14:08 28.43603 -95.54437 506 ft 99 kts 282°
2026-05-04 14:08 28.43590 -95.55193 504 ft 95 kts 256°
2026-05-04 14:09 28.43479 -95.56691 504 ft 97 kts 259°
2026-05-04 14:09 28.43298 -95.57407 511 ft 91 kts 231°
2026-05-04 14:10 28.42268 -95.57921 508 ft 80 kts 181°
2026-05-04 14:10 28.41711 -95.57953 508 ft 80 kts 180°
2026-05-04 14:10 28.41132 -95.57980 507 ft 85 kts 181°
2026-05-04 14:10 28.40552 -95.57939 506 ft 85 kts 165°
2026-05-04 14:11 28.40106 -95.57559 505 ft 81 kts 134°
2026-05-04 14:11 28.39897 -95.56216 504 ft 90 kts 102°
2026-05-04 14:11 28.39878 -95.55500 503 ft 92 kts 96°
2026-05-04 14:12 28.39873 -95.54775 508 ft 91 kts 96°
2026-05-04 14:12 28.39874 -95.54068 506 ft 90 kts 94°
2026-05-04 14:12 28.40766 -95.53003 504 ft 111 kts 21°
2026-05-04 14:13 28.41500 -95.52879 510 ft 104 kts
2026-05-04 14:13 28.42239 -95.52871 504 ft 108 kts
2026-05-04 14:13 28.42995 -95.52908 511 ft 106 kts 358°
2026-05-04 14:13 28.43678 -95.53201 505 ft 110 kts 326°
2026-05-04 14:14 28.44131 -95.53881 506 ft 108 kts 284°
2026-05-04 14:14 28.44237 -95.55504 509 ft 101 kts 270°
2026-05-04 14:14 28.44264 -95.56288 507 ft 97 kts 270°
2026-05-04 14:15 28.44279 -95.57813 504 ft 95 kts 258°
2026-05-04 14:15 28.43531 -95.58830 503 ft 87 kts 193°
2026-05-04 14:16 28.42395 -95.58910 508 ft 76 kts 180°
2026-05-04 14:16 28.41853 -95.58935 504 ft 83 kts 180°
2026-05-04 14:17 28.40677 -95.58959 510 ft 81 kts 181°
2026-05-04 14:17 28.40120 -95.58966 506 ft 80 kts 180°
2026-05-04 14:17 28.39146 -95.58399 507 ft 90 kts 123°
2026-05-04 14:18 28.39000 -95.57720 509 ft 90 kts 104°
2026-05-04 14:18 28.38961 -95.56285 505 ft 91 kts 100°
2026-05-04 14:19 28.39001 -95.54846 506 ft 91 kts 100°
2026-05-04 14:19 28.39018 -95.54125 506 ft 92 kts 96°
2026-05-04 14:19 28.39030 -95.53401 509 ft 91 kts 97°
2026-05-04 14:19 28.39155 -95.52699 507 ft 95 kts 68°
2026-05-04 14:20 28.39669 -95.52194 504 ft 106 kts 30°
2026-05-04 14:20 28.40404 -95.52012 508 ft 108 kts 11°
2026-05-04 14:20 28.41133 -95.51969 507 ft 105 kts
2026-05-04 14:21 28.42647 -95.52008 514 ft 103 kts
2026-05-04 14:21 28.43370 -95.52030 509 ft 105 kts
2026-05-04 14:21 28.44128 -95.52071 503 ft 113 kts 351°
2026-05-04 14:21 28.44784 -95.52479 510 ft 107 kts 311°
2026-05-04 14:22 28.45068 -95.53200 507 ft 98 kts 271°
2026-05-04 14:22 28.45105 -95.53964 508 ft 96 kts 264°
2026-05-04 14:22 28.45120 -95.54719 507 ft 95 kts 263°
2026-05-04 14:22 28.45123 -95.55476 505 ft 98 kts 259°
2026-05-04 14:23 28.45116 -95.57070 509 ft 102 kts 264°
2026-05-04 14:23 28.45122 -95.57874 510 ft 101 kts 266°
2026-05-04 14:23 28.45127 -95.58653 505 ft 96 kts 263°
2026-05-04 14:24 28.44908 -95.59337 508 ft 88 kts 226°
2026-05-04 14:24 28.44461 -95.59740 506 ft 80 kts 197°
2026-05-04 14:24 28.43915 -95.59821 507 ft 82 kts 182°
2026-05-04 14:24 28.43324 -95.59841 514 ft 83 kts 182°
2026-05-04 14:25 28.42775 -95.59866 508 ft 78 kts 180°
2026-05-04 14:25 28.41644 -95.59899 508 ft 86 kts 181°
2026-05-04 14:25 28.41053 -95.59907 510 ft 82 kts 181°
2026-05-04 14:26 28.40500 -95.59913 504 ft 80 kts 180°
2026-05-04 14:26 28.39951 -95.59915 508 ft 79 kts 180°
2026-05-04 14:26 28.39383 -95.59916 507 ft 83 kts 181°
2026-05-04 14:26 28.38807 -95.59845 504 ft 85 kts 161°
2026-05-04 14:27 28.38369 -95.59406 508 ft 87 kts 129°
2026-05-04 14:27 28.38219 -95.58725 509 ft 91 kts 106°
2026-05-04 14:27 28.38175 -95.58016 510 ft 91 kts 98°
2026-05-04 14:27 28.38168 -95.57293 509 ft 93 kts 98°
2026-05-04 14:28 28.38173 -95.56560 513 ft 93 kts 96°
2026-05-04 14:28 28.38180 -95.55821 511 ft 92 kts 98°
2026-05-04 14:28 28.38186 -95.55105 509 ft 91 kts 102°
2026-05-04 14:28 28.38193 -95.54386 508 ft 91 kts 101°
2026-05-04 14:29 28.38203 -95.52954 506 ft 92 kts 96°
2026-05-04 14:29 28.38461 -95.51551 508 ft 97 kts 56°
2026-05-04 14:30 28.39077 -95.51176 504 ft 108 kts 20°
2026-05-04 14:30 28.39832 -95.51057 510 ft 109 kts
2026-05-04 14:30 28.41333 -95.51051 507 ft 111 kts
2026-05-04 14:31 28.42072 -95.51075 514 ft 102 kts
2026-05-04 14:31 28.43567 -95.51109 507 ft 112 kts
2026-05-04 14:32 28.45066 -95.51188 508 ft 108 kts 348°
2026-05-04 14:32 28.45681 -95.51683 503 ft 111 kts 305°
2026-05-04 14:32 28.45922 -95.52476 509 ft 104 kts 270°
2026-05-04 14:32 28.45972 -95.53285 510 ft 102 kts 265°
2026-05-04 14:33 28.45990 -95.54090 510 ft 101 kts 268°
2026-05-04 14:33 28.45994 -95.54886 514 ft 99 kts 266°
2026-05-04 14:33 28.45996 -95.55650 506 ft 96 kts 266°
2026-05-04 14:33 28.45990 -95.56397 507 ft 95 kts 261°
2026-05-04 14:34 28.45981 -95.57142 506 ft 94 kts 263°
2026-05-04 14:34 28.45967 -95.57900 504 ft 99 kts 261°
2026-05-04 14:34 28.45954 -95.58695 515 ft 101 kts 263°
2026-05-04 14:34 28.45953 -95.59493 512 ft 101 kts 264°
2026-05-04 14:35 28.45810 -95.60242 512 ft 94 kts 235°
2026-05-04 14:35 28.45339 -95.60694 508 ft 87 kts 199°
2026-05-04 14:35 28.44784 -95.60779 509 ft 79 kts 181°
2026-05-04 14:35 28.44224 -95.60811 507 ft 84 kts 183°
2026-05-04 14:36 28.43622 -95.60832 514 ft 84 kts 182°
2026-05-04 14:36 28.43071 -95.60847 507 ft 78 kts 180°
2026-05-04 14:36 28.42707 -95.60854 510 ft 80 kts 179°
2026-05-04 14:36 28.42124 -95.60858 511 ft 85 kts 180°
2026-05-04 14:37 28.41534 -95.60861 510 ft 84 kts 181°
2026-05-04 14:37 28.40964 -95.60864 508 ft 79 kts 181°
2026-05-04 14:37 28.40414 -95.60864 510 ft 79 kts 181°
2026-05-04 14:37 28.39852 -95.60864 509 ft 82 kts 181°
2026-05-04 14:38 28.39267 -95.60863 505 ft 86 kts 180°
2026-05-04 14:38 28.38670 -95.60860 512 ft 83 kts 181°
2026-05-04 14:38 28.38101 -95.60828 507 ft 83 kts 170°
2026-05-04 14:38 28.37617 -95.60455 505 ft 89 kts 135°
2026-05-04 14:39 28.37425 -95.59776 510 ft 92 kts 108°
2026-05-04 14:39 28.37377 -95.59044 510 ft 94 kts 103°
2026-05-04 14:39 28.37363 -95.58327 514 ft 90 kts 103°
2026-05-04 14:40 28.37362 -95.56875 511 ft 92 kts 97°
2026-05-04 14:40 28.37364 -95.56148 510 ft 93 kts 96°
2026-05-04 14:40 28.37366 -95.55410 513 ft 93 kts 97°
2026-05-04 14:40 28.37365 -95.54681 511 ft 92 kts 101°
2026-05-04 14:41 28.37363 -95.53956 508 ft 92 kts 102°
2026-05-04 14:41 28.37365 -95.53237 508 ft 91 kts 102°
2026-05-04 14:41 28.37369 -95.51798 509 ft 93 kts 97°
2026-05-04 14:42 28.37741 -95.50431 513 ft 98 kts 46°
2026-05-04 14:42 28.38407 -95.50128 510 ft 109 kts 17°
2026-05-04 14:42 28.39168 -95.50039 516 ft 108 kts
2026-05-04 14:43 28.39901 -95.50043 509 ft 107 kts
2026-05-04 14:43 28.40661 -95.50079 511 ft 109 kts
2026-05-04 14:43 28.41399 -95.50115 513 ft 103 kts
2026-05-04 14:43 28.42126 -95.50141 507 ft 108 kts
2026-05-04 14:44 28.42902 -95.50161 509 ft 112 kts
2026-05-04 14:44 28.43663 -95.50175 515 ft 106 kts
2026-05-04 14:44 28.44393 -95.50180 511 ft 104 kts
2026-05-04 14:44 28.45132 -95.50180 509 ft 109 kts
2026-05-04 14:45 28.45893 -95.50246 504 ft 114 kts 343°
2026-05-04 14:45 28.46519 -95.50740 512 ft 107 kts 302°
2026-05-04 14:45 28.46745 -95.51492 513 ft 98 kts 265°
2026-05-04 14:45 28.46785 -95.52248 515 ft 95 kts 265°
2026-05-04 14:46 28.46804 -95.52996 508 ft 95 kts 262°
2026-05-04 14:46 28.46809 -95.53746 512 ft 95 kts 262°
2026-05-04 14:46 28.46808 -95.54503 506 ft 99 kts 264°
2026-05-04 14:46 28.46801 -95.55299 513 ft 101 kts 263°
2026-05-04 14:47 28.46801 -95.56098 512 ft 101 kts 266°
2026-05-04 14:47 28.46804 -95.56893 513 ft 100 kts 266°
2026-05-04 14:47 28.46811 -95.57663 511 ft 95 kts 268°
2026-05-04 14:47 28.46814 -95.58415 505 ft 95 kts 264°
2026-05-04 14:48 28.46810 -95.59165 509 ft 94 kts 263°
2026-05-04 14:48 28.46803 -95.59909 507 ft 96 kts 261°
2026-05-04 14:48 28.46785 -95.60690 512 ft 100 kts 257°
2026-05-04 14:48 28.46524 -95.61358 514 ft 92 kts 222°
2026-05-04 14:49 28.45985 -95.61690 511 ft 89 kts 190°
2026-05-04 14:49 28.45385 -95.61745 516 ft 82 kts 184°
2026-05-04 14:49 28.44826 -95.61777 512 ft 81 kts 181°
2026-05-04 14:49 28.44262 -95.61796 508 ft 83 kts 182°
2026-05-04 14:50 28.43687 -95.61804 515 ft 79 kts 182°
2026-05-04 14:50 28.43141 -95.61809 510 ft 79 kts 180°
2026-05-04 14:50 28.42585 -95.61811 507 ft 83 kts 179°
2026-05-04 14:50 28.41999 -95.61810 510 ft 84 kts 181°
2026-05-04 14:51 28.41416 -95.61810 515 ft 81 kts 181°
2026-05-04 14:51 28.40862 -95.61810 512 ft 78 kts 181°
2026-05-04 14:51 28.40317 -95.61810 511 ft 81 kts 181°
2026-05-04 14:51 28.39726 -95.61808 511 ft 87 kts 182°
2026-05-04 14:52 28.39117 -95.61806 516 ft 85 kts 182°
2026-05-04 14:52 28.38557 -95.61808 511 ft 78 kts 181°
2026-05-04 14:52 28.38008 -95.61806 505 ft 80 kts 182°
2026-05-04 14:52 28.37448 -95.61797 523 ft 83 kts 180°
2026-05-04 14:53 28.36918 -95.61575 517 ft 83 kts 147°
2026-05-04 14:53 28.36615 -95.61003 513 ft 90 kts 112°
2026-05-04 14:53 28.36534 -95.60300 511 ft 90 kts 105°
2026-05-04 14:53 28.36505 -95.59573 510 ft 94 kts 102°
2026-05-04 14:54 28.36501 -95.58834 509 ft 94 kts 100°
2026-05-04 14:54 28.36511 -95.58083 509 ft 96 kts 99°
2026-05-04 14:54 28.36524 -95.57344 516 ft 92 kts 101°
2026-05-04 14:54 28.36531 -95.56614 511 ft 94 kts 100°
2026-05-04 14:55 28.36536 -95.55877 513 ft 92 kts 96°
2026-05-04 14:55 28.36541 -95.55144 512 ft 94 kts 97°
2026-05-04 14:55 28.36543 -95.54411 515 ft 94 kts 97°
2026-05-04 14:55 28.36542 -95.53677 514 ft 93 kts 100°
2026-05-04 14:56 28.36540 -95.52949 512 ft 92 kts 101°
2026-05-04 14:56 28.36541 -95.52224 512 ft 91 kts 102°
2026-05-04 14:56 28.36543 -95.51503 511 ft 91 kts 102°
2026-05-04 14:56 28.36544 -95.50776 511 ft 93 kts 97°
2026-05-04 14:57 28.36607 -95.50039 511 ft 97 kts 76°
2026-05-04 14:57 28.37041 -95.49460 514 ft 100 kts 37°
2026-05-04 14:57 28.37747 -95.49246 510 ft 110 kts 12°
2026-05-04 14:57 28.38510 -95.49185 515 ft 109 kts
2026-05-04 14:58 28.39248 -95.49180 511 ft 107 kts
2026-05-04 14:58 28.40011 -95.49197 513 ft 110 kts
2026-05-04 14:58 28.40744 -95.49216 515 ft 103 kts
2026-05-04 14:58 28.41477 -95.49229 510 ft 108 kts
2026-05-04 14:59 28.42251 -95.49240 510 ft 113 kts
2026-05-04 14:59 28.43011 -95.49249 519 ft 106 kts
2026-05-04 14:59 28.44487 -95.49247 512 ft 109 kts
2026-05-04 15:00 28.45255 -95.49247 510 ft 113 kts
2026-05-04 15:00 28.46038 -95.49248 515 ft 112 kts
2026-05-04 15:00 28.46809 -95.49329 507 ft 115 kts 341°
2026-05-04 15:01 28.47632 -95.50589 515 ft 94 kts 264°
2026-05-04 15:01 28.47666 -95.51332 514 ft 94 kts 261°
2026-05-04 15:01 28.47667 -95.52074 514 ft 93 kts 259°
2026-05-04 15:01 28.47657 -95.52815 514 ft 94 kts 262°
2026-05-04 15:02 28.47646 -95.53563 513 ft 95 kts 261°
2026-05-04 15:02 28.47638 -95.54310 515 ft 94 kts 263°
2026-05-04 15:02 28.47637 -95.55041 511 ft 94 kts 262°
2026-05-04 15:02 28.47633 -95.55785 513 ft 94 kts 262°
2026-05-04 15:03 28.47631 -95.56531 511 ft 96 kts 262°
2026-05-04 15:03 28.47625 -95.57314 512 ft 101 kts 263°
2026-05-04 15:03 28.47624 -95.58110 516 ft 101 kts 265°
2026-05-04 15:03 28.47627 -95.58904 513 ft 100 kts 266°
2026-05-04 15:04 28.47634 -95.59687 517 ft 96 kts 265°
2026-05-04 15:04 28.47642 -95.60440 507 ft 95 kts 265°
2026-05-04 15:04 28.47641 -95.61188 510 ft 94 kts 260°
2026-05-04 15:04 28.47565 -95.61903 508 ft 88 kts 241°
2026-05-04 15:05 28.47209 -95.62430 512 ft 83 kts 208°
2026-05-04 15:05 28.46686 -95.62634 513 ft 81 kts 180°
2026-05-04 15:05 28.46101 -95.62653 512 ft 87 kts 183°
2026-05-04 15:05 28.45513 -95.62679 519 ft 79 kts 183°
2026-05-04 15:06 28.44978 -95.62703 511 ft 78 kts 181°
2026-05-04 15:06 28.44423 -95.62720 506 ft 85 kts 182°
2026-05-04 15:06 28.43821 -95.62728 518 ft 83 kts 182°
2026-05-04 15:07 28.42708 -95.62740 508 ft 86 kts 179°
2026-05-04 15:07 28.42099 -95.62739 515 ft 86 kts 181°
2026-05-04 15:07 28.41530 -95.62743 515 ft 77 kts 181°
2026-05-04 15:07 28.40994 -95.62745 509 ft 79 kts 181°
2026-05-04 15:08 28.40441 -95.62747 512 ft 81 kts 181°
2026-05-04 15:08 28.39864 -95.62749 512 ft 83 kts 181°
2026-05-04 15:08 28.39282 -95.62750 513 ft 83 kts 182°
2026-05-04 15:08 28.38715 -95.62750 511 ft 81 kts 181°
2026-05-04 15:09 28.38148 -95.62748 508 ft 82 kts 182°
2026-05-04 15:09 28.37580 -95.62743 515 ft 81 kts 182°
2026-05-04 15:09 28.37013 -95.62744 514 ft 82 kts 181°
2026-05-04 15:10 28.35958 -95.62415 512 ft 83 kts 144°
2026-05-04 15:10 28.35727 -95.61777 511 ft 93 kts 116°
2026-05-04 15:10 28.35651 -95.60278 513 ft 98 kts 99°
2026-05-04 15:11 28.35664 -95.59537 520 ft 90 kts 101°
2026-05-04 15:11 28.35676 -95.58817 511 ft 94 kts 100°
2026-05-04 15:11 28.35684 -95.58081 512 ft 93 kts 101°
2026-05-04 15:11 28.35692 -95.57335 507 ft 96 kts 99°
2026-05-04 15:12 28.35701 -95.56591 516 ft 92 kts 101°
2026-05-04 15:12 28.35704 -95.55867 509 ft 93 kts 100°
2026-05-04 15:12 28.35704 -95.55130 512 ft 92 kts 97°
2026-05-04 15:12 28.35703 -95.54403 509 ft 93 kts 98°
2026-05-04 15:13 28.35700 -95.53664 514 ft 94 kts 98°
2026-05-04 15:13 28.35697 -95.52932 514 ft 92 kts 99°
2026-05-04 15:13 28.35692 -95.52200 512 ft 93 kts 101°
2026-05-04 15:13 28.35691 -95.51475 511 ft 91 kts 102°
2026-05-04 15:14 28.35692 -95.50753 511 ft 92 kts 101°
2026-05-04 15:14 28.35694 -95.50029 511 ft 92 kts 99°
2026-05-04 15:14 28.35708 -95.49294 511 ft 95 kts 89°
2026-05-04 15:14 28.36023 -95.48631 514 ft 99 kts 49°
2026-05-04 15:15 28.36660 -95.48313 512 ft 107 kts 17°
2026-05-04 15:15 28.37415 -95.48217 512 ft 110 kts
2026-05-04 15:15 28.38153 -95.48204 513 ft 106 kts
2026-05-04 15:16 28.39675 -95.48245 520 ft 104 kts
2026-05-04 15:16 28.40391 -95.48262 514 ft 104 kts
2026-05-04 15:16 28.41930 -95.48287 524 ft 112 kts
2026-05-04 15:17 28.42681 -95.48293 519 ft 107 kts
2026-05-04 15:17 28.44188 -95.48296 513 ft 111 kts
2026-05-04 15:17 28.44966 -95.48297 515 ft 113 kts
2026-05-04 15:18 28.45745 -95.48297 513 ft 111 kts
2026-05-04 15:18 28.46543 -95.48299 514 ft 116 kts
2026-05-04 15:18 28.47319 -95.48298 519 ft 108 kts 359°
2026-05-04 15:19 28.49062 -95.47912 588 ft 158 kts 26°
2026-05-04 15:19 28.50053 -95.47344 729 ft 154 kts 34°
2026-05-04 15:19 28.51869 -95.46063 744 ft 158 kts 39°
2026-05-04 15:20 28.52799 -95.45384 758 ft 158 kts 36°
2026-05-04 15:20 28.53711 -95.44719 757 ft 155 kts 40°
2026-05-04 15:20 28.54632 -95.44056 760 ft 158 kts 37°
2026-05-04 15:20 28.55562 -95.43396 767 ft 157 kts 38°
2026-05-04 15:21 28.56473 -95.42755 762 ft 153 kts 39°
2026-05-04 15:21 28.57380 -95.42123 768 ft 152 kts 37°
2026-05-04 15:21 28.59188 -95.40874 767 ft 151 kts 35°
2026-05-04 15:22 28.60092 -95.40253 766 ft 150 kts 38°
2026-05-04 15:22 28.61000 -95.39633 761 ft 155 kts 38°
2026-05-04 15:22 28.62814 -95.38397 763 ft 153 kts 37°
2026-05-04 15:23 28.63421 -95.37983 766 ft 154 kts 37°
2026-05-04 15:23 28.64339 -95.37353 764 ft 154 kts 37°
2026-05-04 15:23 28.65260 -95.36721 762 ft 155 kts 35°
2026-05-04 15:23 28.66185 -95.36087 765 ft 156 kts 35°
2026-05-04 15:24 28.68072 -95.34795 768 ft 155 kts 35°
2026-05-04 15:24 28.69941 -95.33505 766 ft 157 kts 37°
2026-05-04 15:25 28.70867 -95.32859 765 ft 155 kts 37°
2026-05-04 15:25 28.71790 -95.32219 765 ft 156 kts 36°
2026-05-04 15:25 28.72701 -95.31587 766 ft 152 kts 38°
2026-05-04 15:26 28.74545 -95.30314 765 ft 154 kts 37°
2026-05-04 15:26 28.75455 -95.29684 773 ft 151 kts 37°
2026-05-04 15:26 28.77263 -95.28437 772 ft 149 kts 36°
2026-05-04 15:27 28.78165 -95.27818 764 ft 154 kts 37°
2026-05-04 15:27 28.80010 -95.26555 763 ft 154 kts 36°
2026-05-04 15:28 28.81878 -95.25277 756 ft 158 kts 37°
2026-05-04 15:28 28.82823 -95.24630 772 ft 157 kts 37°
2026-05-04 15:28 28.84666 -95.23355 768 ft 155 kts 38°
2026-05-04 15:29 28.85609 -95.22705 775 ft 159 kts 37°
2026-05-04 15:30 28.89319 -95.20135 765 ft 153 kts 37°
2026-05-04 15:30 28.92027 -95.18253 773 ft 154 kts 36°
2026-05-04 15:31 28.93848 -95.16998 776 ft 153 kts 35°
2026-05-04 15:31 28.94773 -95.16360 772 ft 157 kts 36°
2026-05-04 15:32 28.97520 -95.14449 766 ft 155 kts 37°
2026-05-04 15:32 28.99393 -95.13157 775 ft 154 kts 37°
2026-05-04 15:33 29.01276 -95.11858 778 ft 153 kts 38°
2026-05-04 15:34 29.04078 -95.09903 773 ft 157 kts 37°
2026-05-04 15:34 29.05006 -95.09256 768 ft 156 kts 37°
2026-05-04 15:34 29.06906 -95.07946 776 ft 154 kts 38°
2026-05-04 15:35 29.08757 -95.06655 771 ft 153 kts 37°
2026-05-04 15:35 29.09669 -95.06019 772 ft 155 kts 37°
2026-05-04 15:35 29.10587 -95.05390 772 ft 153 kts 38°
2026-05-04 15:36 29.12449 -95.04133 783 ft 154 kts 38°
2026-05-04 15:36 29.13347 -95.03518 768 ft 155 kts 36°
2026-05-04 15:36 29.14276 -95.02880 783 ft 154 kts 38°
2026-05-04 15:37 29.15198 -95.02238 785 ft 153 kts 38°
2026-05-04 15:37 29.16088 -95.01612 782 ft 149 kts 38°
2026-05-04 15:37 29.17000 -95.00976 778 ft 156 kts 37°
2026-05-04 15:37 29.17916 -95.00340 774 ft 153 kts 38°
2026-05-04 15:38 29.18859 -94.99692 782 ft 161 kts 36°
2026-05-04 15:38 29.19790 -94.99043 779 ft 156 kts 37°
2026-05-04 15:38 29.20718 -94.98393 782 ft 157 kts 35°
2026-05-04 15:38 29.21640 -94.97747 783 ft 152 kts 37°
2026-05-04 15:39 29.22549 -94.97112 774 ft 157 kts 36°
2026-05-04 15:39 29.23474 -94.96468 781 ft 155 kts 36°
2026-05-04 15:39 29.25322 -94.95179 774 ft 156 kts 37°
2026-05-04 15:40 29.26257 -94.94526 784 ft 158 kts 35°
2026-05-04 15:40 29.27189 -94.93874 784 ft 153 kts 37°
2026-05-04 15:40 29.28097 -94.93239 787 ft 151 kts 37°
2026-05-04 15:40 29.28985 -94.92617 776 ft 150 kts 38°
2026-05-04 15:41 29.29895 -94.91987 778 ft 154 kts 36°
2026-05-04 15:41 29.30817 -94.91347 781 ft 154 kts 37°
2026-05-04 15:41 29.31734 -94.90711 780 ft 157 kts 37°
2026-05-04 15:41 29.32647 -94.90072 778 ft 155 kts 36°
2026-05-04 15:42 29.33586 -94.89420 785 ft 157 kts 36°
2026-05-04 15:42 29.34512 -94.88774 779 ft 156 kts 37°
2026-05-04 15:42 29.35439 -94.88128 776 ft 157 kts 37°
2026-05-04 15:42 29.36374 -94.87478 781 ft 158 kts 37°
2026-05-04 15:43 29.37302 -94.86826 783 ft 154 kts 37°
2026-05-04 15:43 29.38218 -94.86185 772 ft 158 kts 37°
2026-05-04 15:43 29.39162 -94.85527 791 ft 155 kts 36°
2026-05-04 15:43 29.40080 -94.84878 783 ft 153 kts 36°
2026-05-04 15:44 29.40983 -94.84241 780 ft 153 kts 38°
2026-05-04 15:44 29.41874 -94.83613 778 ft 148 kts 37°
2026-05-04 15:44 29.42772 -94.82989 770 ft 154 kts 37°
2026-05-04 15:44 29.43673 -94.82364 781 ft 149 kts 36°
2026-05-04 15:45 29.44576 -94.81735 773 ft 155 kts 37°
2026-05-04 15:45 29.45484 -94.81100 777 ft 153 kts 37°
2026-05-04 15:45 29.46392 -94.80463 780 ft 152 kts 35°
2026-05-04 15:45 29.47300 -94.79826 769 ft 157 kts 37°
2026-05-04 15:46 29.48222 -94.79183 778 ft 152 kts 36°
2026-05-04 15:46 29.49130 -94.78547 772 ft 155 kts 38°
2026-05-04 15:46 29.50057 -94.77900 769 ft 159 kts 38°
2026-05-04 15:46 29.50990 -94.77247 776 ft 155 kts 38°
2026-05-04 15:47 29.51946 -94.76597 772 ft 162 kts 31°
2026-05-04 15:47 29.53008 -94.76298 765 ft 159 kts
2026-05-04 15:47 29.54099 -94.76568 773 ft 159 kts 335°
2026-05-04 15:47 29.54948 -94.77308 766 ft 154 kts 308°
2026-05-04 15:48 29.55421 -94.78378 766 ft 148 kts 282°
2026-05-04 15:48 29.55601 -94.79522 767 ft 144 kts 274°
2026-05-04 15:48 29.55824 -94.81793 769 ft 138 kts 274°
2026-05-04 15:49 29.55951 -94.82886 749 ft 142 kts 272°
2026-05-04 15:49 29.56087 -94.84026 766 ft 144 kts 276°
2026-05-04 15:49 29.56247 -94.85153 760 ft 144 kts 277°
2026-05-04 15:49 29.56439 -94.86290 764 ft 146 kts 279°
2026-05-04 15:50 29.56670 -94.87396 760 ft 140 kts 279°
2026-05-04 15:50 29.56937 -94.88480 754 ft 142 kts 280°
2026-05-04 15:50 29.57233 -94.89579 756 ft 146 kts 280°
2026-05-04 15:50 29.57558 -94.90685 762 ft 145 kts 282°
2026-05-04 15:51 29.57914 -94.91768 760 ft 145 kts 285°
2026-05-04 15:51 29.58302 -94.92855 761 ft 149 kts 288°
2026-05-04 15:51 29.58723 -94.93951 759 ft 151 kts 290°
2026-05-04 15:51 29.59173 -94.95031 758 ft 149 kts 293°
2026-05-04 15:52 29.59646 -94.96085 758 ft 148 kts 296°
2026-05-04 15:52 29.60147 -94.97129 756 ft 150 kts 296°
2026-05-04 15:52 29.60671 -94.98156 757 ft 149 kts 299°
2026-05-04 15:52 29.61217 -94.99161 750 ft 150 kts 300°
2026-05-04 15:53 29.61835 -95.00107 750 ft 151 kts 315°
2026-05-04 15:53 29.62771 -95.00739 749 ft 159 kts 339°
2026-05-04 15:53 29.63861 -95.00884 765 ft 158 kts
2026-05-04 15:53 29.64879 -95.00503 747 ft 156 kts 34°
2026-05-04 15:54 29.65766 -94.99792 762 ft 152 kts 43°
2026-05-04 15:54 29.66635 -94.99057 750 ft 158 kts 41°
2026-05-04 15:54 29.67501 -94.98313 754 ft 155 kts 44°
2026-05-04 15:54 29.68375 -94.97547 756 ft 160 kts 42°
2026-05-04 15:55 29.69227 -94.96782 755 ft 154 kts 43°
2026-05-04 15:55 29.70063 -94.96013 758 ft 153 kts 45°
2026-05-04 15:55 29.70882 -94.95237 755 ft 151 kts 44°
2026-05-04 15:55 29.71693 -94.94452 750 ft 156 kts 45°
2026-05-04 15:56 29.72583 -94.93740 757 ft 157 kts 27°
2026-05-04 15:56 29.73660 -94.93587 752 ft 160 kts 353°
2026-05-04 15:56 29.74639 -94.94161 762 ft 157 kts 315°
2026-05-04 15:56 29.75174 -94.95195 765 ft 150 kts 290°
2026-05-04 15:57 29.75558 -94.96302 759 ft 149 kts 287°
2026-05-04 15:57 29.75905 -94.97429 760 ft 149 kts 283°
2026-05-04 15:57 29.76209 -94.98564 758 ft 148 kts 279°
2026-05-04 15:57 29.76464 -94.99705 761 ft 145 kts 278°
2026-05-04 15:58 29.76558 -95.00843 755 ft 142 kts 266°
2026-05-04 15:58 29.76557 -95.01981 755 ft 142 kts 265°
2026-05-04 15:58 29.76563 -95.03117 755 ft 142 kts 266°
2026-05-04 15:58 29.76577 -95.04232 773 ft 132 kts 267°
2026-05-04 15:59 29.76635 -95.05180 668 ft 108 kts 270°
2026-05-04 15:59 29.76717 -95.06037 592 ft 110 kts 270°
2026-05-04 15:59 29.76684 -95.06904 580 ft 107 kts 256°
2026-05-04 15:59 29.76517 -95.07719 572 ft 101 kts 245°
2026-05-04 16:00 29.76221 -95.08412 562 ft 94 kts 229°
2026-05-04 16:00 29.75815 -95.09025 565 ft 98 kts 224°
2026-05-04 16:00 29.75395 -95.09630 560 ft 96 kts 227°
2026-05-04 16:00 29.74967 -95.10231 565 ft 97 kts 226°
2026-05-04 16:01 29.74550 -95.10814 559 ft 90 kts 225°
2026-05-04 16:01 29.74173 -95.11356 556 ft 85 kts 227°
2026-05-04 16:01 29.73850 -95.11960 545 ft 95 kts 236°
2026-05-04 16:01 29.73557 -95.12672 555 ft 100 kts 242°
2026-05-04 16:02 29.73429 -95.13449 554 ft 101 kts 266°
2026-05-04 16:02 29.73624 -95.14249 553 ft 107 kts 287°
2026-05-04 16:02 29.74286 -95.15789 554 ft 106 kts 289°
2026-05-04 16:03 29.74590 -95.16557 555 ft 105 kts 284°
2026-05-04 16:03 29.74770 -95.17345 557 ft 101 kts 268°
2026-05-04 16:03 29.74730 -95.18149 556 ft 100 kts 251°
2026-05-04 16:03 29.74560 -95.18909 557 ft 98 kts 252°
2026-05-04 16:04 29.74343 -95.19650 563 ft 97 kts 238°
2026-05-04 16:04 29.73464 -95.20671 504 ft 89 kts 209°
2026-05-04 16:04 29.72918 -95.21062 506 ft 93 kts 211°
2026-05-04 16:05 29.72521 -95.21634 488 ft 100 kts 248°
2026-05-04 16:05 29.72548 -95.22458 492 ft 103 kts 264°
2026-05-04 16:05 29.72007 -95.23776 486 ft 92 kts 234°
2026-05-04 16:06 29.72018 -95.24557 492 ft 109 kts 289°
2026-05-04 16:06 29.72673 -95.26598 493 ft 101 kts 260°
2026-05-04 16:07 29.73003 -95.27632 487 ft 111 kts 311°
2026-05-04 16:07 29.75110 -95.28915 499 ft 114 kts 314°
2026-05-04 16:08 29.75769 -95.29427 487 ft 118 kts 333°
2026-05-04 16:08 29.76610 -95.31569 492 ft 100 kts 258°
2026-05-04 16:09 29.76559 -95.33165 491 ft 100 kts 259°
2026-05-04 16:09 29.76352 -95.34713 488 ft 95 kts 226°
2026-05-04 16:10 29.75496 -95.35399 484 ft 96 kts 208°
2026-05-04 16:11 29.74438 -95.37290 490 ft 106 kts 272°
2026-05-04 16:11 29.74843 -95.37999 487 ft 114 kts 326°
2026-05-04 16:12 29.76471 -95.36709 488 ft 102 kts 72°
2026-05-04 16:12 29.77454 -95.34459 483 ft 103 kts 108°
2026-05-04 16:13 29.76527 -95.34123 484 ft 89 kts 220°
2026-05-04 16:13 29.75632 -95.35166 493 ft 93 kts 224°
2026-05-04 16:14 29.74655 -95.36196 492 ft 88 kts 213°
2026-05-04 16:14 29.73643 -95.36985 493 ft 88 kts 207°
2026-05-04 16:15 29.71882 -95.37880 496 ft 93 kts 187°
2026-05-04 16:16 29.70766 -95.38553 491 ft 93 kts 221°
2026-05-04 16:16 29.69392 -95.40207 485 ft 98 kts 208°
2026-05-04 16:17 29.68153 -95.40438 488 ft 96 kts 202°
2026-05-04 16:18 29.68876 -95.41712 476 ft 111 kts 50°
2026-05-04 16:18 29.69093 -95.40931 490 ft 102 kts 99°
2026-05-04 16:19 29.67983 -95.40583 486 ft 100 kts 245°
2026-05-04 16:19 29.68718 -95.41824 489 ft 119 kts
2026-05-04 16:20 29.68814 -95.40226 496 ft 84 kts 205°
2026-05-04 16:20 29.68370 -95.41483 493 ft 116 kts 304°
2026-05-04 16:21 29.68796 -95.40241 499 ft 87 kts 158°
2026-05-04 16:22 29.68046 -95.41016 492 ft 104 kts 261°
2026-05-04 16:22 29.69407 -95.41354 479 ft 106 kts 96°
2026-05-04 16:23 29.68057 -95.40935 489 ft 103 kts 249°
2026-05-04 16:24 29.68946 -95.40458 492 ft 84 kts 187°
2026-05-04 16:25 29.68915 -95.41750 498 ft 116 kts 302°
2026-05-04 16:26 29.71579 -95.43753 486 ft 119 kts 322°
2026-05-04 16:26 29.73171 -95.45695 488 ft 115 kts 313°
2026-05-04 16:27 29.74634 -95.45715 488 ft 118 kts 11°
2026-05-04 16:28 29.75041 -95.43879 484 ft 92 kts 134°
2026-05-04 16:28 29.73782 -95.42295 485 ft 94 kts 135°
2026-05-04 16:29 29.72123 -95.39817 486 ft 96 kts 141°
2026-05-04 16:30 29.70685 -95.38112 492 ft 102 kts 145°
2026-05-04 16:31 29.69725 -95.37154 493 ft 88 kts 149°
2026-05-04 16:31 29.68181 -95.35875 496 ft 94 kts 152°
2026-05-04 16:32 29.66403 -95.34888 493 ft 89 kts 183°
2026-05-04 16:33 29.65188 -95.34936 485 ft 93 kts 180°
2026-05-04 16:33 29.63905 -95.34997 498 ft 91 kts 182°
2026-05-04 16:34 29.62642 -95.35006 486 ft 99 kts 183°
2026-05-04 16:34 29.62004 -95.34963 493 ft 87 kts 183°
2026-05-04 16:35 29.60268 -95.34909 488 ft 78 kts 182°
2026-05-04 16:35 29.58561 -95.34978 493 ft 79 kts 181°
2026-05-04 16:36 29.58028 -95.34998 491 ft 77 kts 182°
2026-05-04 16:36 29.56994 -95.34568 499 ft 90 kts 131°
2026-05-04 16:37 29.57004 -95.33018 495 ft 103 kts 92°
2026-05-04 16:37 29.57178 -95.32211 492 ft 104 kts 89°
2026-05-04 16:37 29.57511 -95.30620 488 ft 98 kts 88°
2026-05-04 16:38 29.57849 -95.29011 492 ft 109 kts 86°
2026-05-04 16:39 29.58259 -95.26621 488 ft 108 kts 90°
2026-05-04 16:39 29.58573 -95.24959 495 ft 105 kts 88°
2026-05-04 16:40 29.58809 -95.23304 482 ft 109 kts 89°
2026-05-04 16:40 29.59020 -95.21698 483 ft 97 kts 91°
2026-05-04 16:41 29.59108 -95.20346 479 ft 84 kts 101°
2026-05-04 16:41 29.60353 -95.18937 481 ft 92 kts 26°
2026-05-04 16:42 29.62492 -95.18282 514 ft 122 kts 19°
2026-05-04 16:43 29.62948 -95.17194 455 ft 69 kts 155°
2026-05-04 16:43 29.62207 -95.16974 293 ft 43 kts 176°
2026-05-04 16:43 29.61942 -95.16929 249 ft 37 kts 174°
2026-05-04 16:44 29.61126 -95.16843 70 ft 3 kts 176°
2026-05-04 16:45 29.61045 -95.16830 58 ft 5 kts 184°
2026-05-04 16:46 29.61008 -95.16838 51 ft 2 kts 184°
2026-05-04 16:46 29.61004 -95.16825 61 ft 2 kts 184°
2026-05-04 16:47 29.60988 -95.16827 35 ft 2 kts 184°
2026-05-04 16:47 29.60997 -95.16826 48 ft 1 kts 183°
2026-05-04 16:48 29.60996 -95.16828 42 ft 0 kts 183°
2026-05-04 16:48 29.60995 -95.16825 42 ft 1 kts 183°
2026-05-04 16:49 29.60994 -95.16823 41 ft 1 kts 183°
2026-05-04 16:49 29.60993 -95.16827 34 ft 0 kts 182°